Edmonton City Centre Airport, Alberta

Past 24 Hour Conditions

This table is a summary of hourly weather conditions for the past 24 hours. This summary includes the following parameters: temperature, humidity, dew point, wind speed and direction, air pressure, visibility and/or wind chill and humidex.
Date / Time
(MDT)
Conditions Temp (°C) Humidity (%) Dew Point (°C) Wind (km/h) Pressure (kPa) Vis (km) Humidex
29 July 2014
18:00 N/A 29 45 16 SSE 11 101.7 15 34
17:00 Sunny 29 43 15 ESE 17 101.8 15 34
16:00 Sunny 30   42 15 SE 17 101.8 15 34
15:00 Sunny 30   45 17 SE 11 101.8 15 35
14:00 Sunny 29 50 18 E 6 101.8 15 35
13:00 Sunny 29 54 18 ENE 9 101.9 15 35
12:00 Sunny 27 52 17 SSE 7 101.9 15 32
11:00 Sunny 25 56 16 SE 6 101.9 15 30
10:00 Sunny 24 60 16 calm 102.0 15 28
9:00 Sunny 21 69 15 calm 102.0 15 26
8:00 Sunny 20 76 15 ESE 7 102.0 15 *
7:00 Sunny 17   86 15 ENE 6 102.0 15 *
6:00 Sunny 17   85 14 ENE 6 102.0 15 *
5:00 Clear 17   83 14 NNE 7 102.0 15 *
4:00 Clear 18 80 15 SE 7 101.9 15 *
3:00 Clear 19 77 15 SSE 6 101.9 15 *
2:00 Clear 20 76 15 SSE 4 102.0 15 *
1:00 Clear 21 74 16 ESE 9 102.0 15 25
00:00 Clear 21 76 16 ENE 6 102.0 15 25
28 July 2014
23:00 Clear 22 70 17 E 9 102.0 15 27
22:00 Clear 23 63 16 ESE 9 102.0 15 28
21:00 Sunny 25 60 17 ESE 11 102.0 15 30
20:00 Sunny 26 55 16 SE 13 102.0 15 31
19:00 Sunny 27 53 17 ESE 17 102.0 15 32
18:00 Sunny 28 49 16 SSE 15 102.0 15 32
N/A
Not available
 ↑ 
Highest temperature
 ↓ 
Lowest temperature
*
Value not significant.

If you require additional historical weather information, please visit Climate Data Online.